Time;durP1;ratioP1;P1;durP2;ratioP2;P2;SDS_P1;SDS_P2;PMS_P1;PMS_P2;Temp;Humidity;BMP_temperature;BMP_pressure;BME280_temperature;BME280_humidity;BME280_pressure;Samples;Min_cycle;Max_cycle;Signal;HPM_P1;HPM_P2
2022/12/12 07:06:27;;;;;;;29.35;17.27;;;;;;;-1.52;84.75;100992.34;5322370;27;20391;-72
2022/12/12 07:08:59;;;;;;;28.50;18.02;;;;;;;-1.60;85.15;100994.22;5321503;28;20773;-72
2022/12/12 07:11:30;;;;;;;34.75;18.10;;;;;;;-1.54;85.51;100995.25;5321776;28;20043;-72
2022/12/12 07:14:04;;;;;;;28.58;17.13;;;;;;;-1.57;84.95;100999.22;5322393;28;20012;-73
2022/12/12 07:16:35;;;;;;;31.75;18.70;;;;;;;-1.55;85.28;100999.03;5321405;28;20370;-73
2022/12/12 07:19:08;;;;;;;29.30;18.65;;;;;;;-1.58;85.06;101008.44;5310089;28;20037;-73
2022/12/12 07:21:40;;;;;;;27.05;17.45;;;;;;;-1.57;84.98;101004.69;5311321;28;20036;-73
2022/12/12 07:24:11;;;;;;;27.05;17.13;;;;;;;-1.54;85.02;101008.88;5321665;28;20073;-74
2022/12/12 07:26:43;;;;;;;30.65;18.63;;;;;;;-1.57;84.62;101010.13;5322590;28;20032;-74
2022/12/12 07:29:14;;;;;;;23.67;15.88;;;;;;;-1.54;84.63;101014.31;5322517;28;20024;-73
2022/12/12 07:31:46;;;;;;;28.80;17.58;;;;;;;-1.50;85.27;101012.88;5321677;28;20095;-74
2022/12/12 07:34:17;;;;;;;25.70;16.02;;;;;;;-1.51;84.67;101016.59;5322221;28;20073;-74
2022/12/12 07:36:48;;;;;;;28.85;18.63;;;;;;;-1.48;84.96;101023.53;5304868;28;20032;-74
2022/12/12 07:39:23;;;;;;;27.30;17.33;;;;;;;-1.53;84.00;101018.72;5299485;28;20028;-73
2022/12/12 07:41:54;;;;;;;28.85;17.80;;;;;;;-1.52;84.22;101023.09;5299227;28;20028;-73
2022/12/12 07:44:25;;;;;;;28.40;19.80;;;;;;;-1.50;84.31;101029.19;5299539;28;20024;-72
2022/12/12 07:46:57;;;;;;;27.70;18.00;;;;;;;-1.59;84.62;101027.69;5299541;28;20091;-72
2022/12/12 07:49:29;;;;;;;26.58;17.30;;;;;;;-1.64;84.60;101031.00;5300353;28;20099;-73
2022/12/12 07:52:00;;;;;;;25.15;16.85;;;;;;;-1.50;85.68;101031.91;5302317;28;20110;-74
2022/12/12 07:54:35;;;;;;;27.30;16.67;;;;;;;-1.56;84.76;101041.72;5321856;28;20500;-74
2022/12/12 07:57:06;;;;;;;26.55;16.67;;;;;;;-1.49;84.75;101044.44;5321424;28;20024;-76
2022/12/12 07:59:38;;;;;;;26.83;16.77;;;;;;;-1.41;84.70;101038.81;5318400;28;20424;-73
2022/12/12 08:02:10;;;;;;;22.15;15.77;;;;;;;-1.38;84.09;101043.88;5320994;28;20077;-75
2022/12/12 08:04:41;;;;;;;24.38;16.65;;;;;;;-1.39;84.03;101049.50;5323934;28;20046;-74
2022/12/12 08:07:15;;;;;;;25.95;15.70;;;;;;;-1.44;84.61;101061.00;5329693;28;20078;-75
2022/12/12 08:09:47;;;;;;;24.88;16.83;;;;;;;-1.30;84.56;101061.88;5337537;28;20054;-75
2022/12/12 08:12:18;;;;;;;27.48;16.27;;;;;;;-1.33;83.47;101054.97;5338049;28;20028;-75
2022/12/12 08:14:52;;;;;;;30.17;17.48;;;;;;;-1.25;83.38;101059.38;5341518;28;20036;-74
2022/12/12 08:17:24;;;;;;;28.08;17.58;;;;;;;-1.26;83.42;101062.31;5327600;28;20024;-74
2022/12/12 08:19:55;;;;;;;27.05;17.58;;;;;;;-1.47;83.58;101066.03;5310933;28;20077;-75
2022/12/12 08:22:26;;;;;;;28.58;17.10;;;;;;;-1.49;84.20;101060.78;5306416;28;20024;-75
2022/12/12 08:24:58;;;;;;;27.17;16.95;;;;;;;-1.37;84.36;101058.31;5306833;28;20060;-75
2022/12/12 08:27:29;;;;;;;31.15;17.95;;;;;;;-1.54;84.39;101066.81;5304954;28;20027;-72
2022/12/12 08:30:00;;;;;;;28.27;17.10;;;;;;;-1.39;84.84;101063.94;5307034;28;20020;-73
2022/12/12 08:32:35;;;;;;;27.30;16.98;;;;;;;-1.47;84.30;101069.56;5306711;28;20055;-73
2022/12/12 08:35:07;;;;;;;26.35;17.38;;;;;;;-1.55;84.29;101072.47;5305719;28;20026;-73
2022/12/12 08:37:38;;;;;;;26.33;17.30;;;;;;;-1.64;83.98;101068.25;5306850;28;20020;-73
2022/12/12 08:40:16;;;;;;;24.90;16.05;;;;;;;-1.54;84.78;101072.25;5305815;28;20016;-72
2022/12/12 08:42:53;;;;;;;30.30;17.20;;;;;;;-1.58;84.56;101076.44;5305470;28;20391;-74
2022/12/12 08:45:24;;;;;;;28.85;17.08;;;;;;;-1.51;84.69;101068.28;5304417;28;20466;-74
2022/12/12 08:47:57;;;;;;;27.35;17.83;;;;;;;-1.53;84.43;101070.41;5305272;28;20052;-73
2022/12/12 08:50:28;;;;;;;28.10;16.65;;;;;;;-1.37;84.70;101066.47;5306050;28;20020;-73
2022/12/12 08:53:03;;;;;;;31.25;17.92;;;;;;;-1.27;84.55;101072.34;5306055;28;20030;-73
2022/12/12 08:55:34;;;;;;;28.85;17.48;;;;;;;-1.41;82.96;101076.91;5305494;28;20474;-73
2022/12/12 08:58:09;;;;;;;29.63;18.30;;;;;;;-1.20;83.79;101066.91;5306163;28;20044;-73
2022/12/12 09:00:40;;;;;;;27.90;18.48;;;;;;;-1.12;83.85;101080.34;5305056;28;20020;-74
2022/12/12 09:03:11;;;;;;;28.88;16.60;;;;;;;-1.06;83.63;101079.50;5304830;28;20026;-73
2022/12/12 09:05:44;;;;;;;29.70;16.58;;;;;;;-1.06;83.50;101078.66;5305953;28;20044;-73
2022/12/12 09:08:15;;;;;;;27.83;16.17;;;;;;;-1.01;83.87;101077.00;5305117;28;20351;-74
2022/12/12 09:10:49;;;;;;;26.60;15.77;;;;;;;-1.04;83.33;101082.03;5297953;28;20025;-73
2022/12/12 09:13:20;;;;;;;28.77;16.98;;;;;;;-1.04;83.12;101080.13;5284513;28;20033;-73
2022/12/12 09:15:51;;;;;;;25.73;15.77;;;;;;;-0.99;83.15;101080.34;5284339;28;20035;-73
2022/12/12 09:18:23;;;;;;;27.55;16.73;;;;;;;-0.99;83.43;101090.41;5298982;28;20059;-73
2022/12/12 09:20:56;;;;;;;30.85;17.38;;;;;;;-0.95;83.41;101086.22;5306026;28;20371;-72
2022/12/12 09:23:28;;;;;;;22.38;13.93;;;;;;;-0.80;83.54;101089.56;5304554;28;20126;-69
2022/12/12 09:26:06;;;;;;;28.83;16.58;;;;;;;-0.72;83.04;101083.09;5305431;28;20127;-69
2022/12/12 09:28:38;;;;;;;24.98;15.30;;;;;;;-0.71;82.55;101080.16;5304081;28;20089;-68
2022/12/12 09:31:11;;;;;;;25.23;14.55;;;;;;;-0.84;81.58;101090.19;5304685;28;20023;-71
2022/12/12 09:33:42;;;;;;;23.95;15.90;;;;;;;-0.86;82.54;101086.88;5304237;28;20025;-73
2022/12/12 09:36:14;;;;;;;29.30;14.85;;;;;;;-0.71;83.43;101090.22;5284009;28;20020;-73
2022/12/12 09:38:45;;;;;;;22.83;14.35;;;;;;;-0.72;82.28;101081.19;5283197;28;20485;-72
2022/12/12 09:41:19;;;;;;;26.75;14.88;;;;;;;-0.80;82.64;101086.03;5284051;28;20073;-72
2022/12/12 09:43:56;;;;;;;23.92;14.15;;;;;;;-0.83;83.73;101084.56;5282989;28;20376;-71
2022/12/12 09:46:47;;;;;;;25.13;15.18;;;;;;;-0.70;82.73;101081.00;5290962;28;20028;-72
2022/12/12 09:49:26;;;;;;;22.50;14.63;;;;;;;-0.77;82.71;101083.69;5305049;28;20020;-72
2022/12/12 09:51:58;;;;;;;25.63;14.88;;;;;;;-0.67;82.71;101080.56;5286543;28;20510;-72
2022/12/12 09:54:30;;;;;;;22.75;15.02;;;;;;;-0.69;82.55;101083.53;5282711;28;20392;-72
2022/12/12 09:57:20;;;;;;;22.98;15.02;;;;;;;-0.69;82.56;101075.34;5283635;28;20021;-71
2022/12/12 10:00:03;;;;;;;30.20;16.77;;;;;;;-0.55;83.08;101070.72;5282787;28;20056;-71
2022/12/12 10:02:48;;;;;;;24.13;14.80;;;;;;;-0.43;81.93;101073.66;5283708;28;20459;-72
2022/12/12 10:05:24;;;;;;;20.58;12.02;;;;;;;-0.39;81.49;101077.63;5282415;28;20450;-72
2022/12/12 10:07:59;;;;;;;21.20;13.63;;;;;;;-0.33;81.99;101074.06;5286142;28;20032;-71
2022/12/12 10:10:37;;;;;;;22.48;14.18;;;;;;;-0.30;81.42;101079.09;5292467;28;20434;-70
2022/12/12 10:13:24;;;;;;;24.65;14.80;;;;;;;-0.16;81.48;101081.78;5282385;28;20032;-70
2022/12/12 10:16:06;;;;;;;19.38;13.85;;;;;;;-0.13;80.90;101074.00;5299973;28;20177;-70
2022/12/12 10:18:46;;;;;;;21.40;14.35;;;;;;;-0.09;81.65;101075.25;5303617;28;20103;-70
2022/12/12 10:21:29;;;;;;;31.15;18.70;;;;;;;-0.06;80.32;101069.38;5303782;28;20052;-70
2022/12/12 10:24:06;;;;;;;25.08;15.43;;;;;;;-0.03;80.41;101068.09;5301110;28;20035;-69
2022/12/12 10:26:41;;;;;;;19.30;12.80;;;;;;;-0.13;80.67;101074.00;5286999;28;20033;-71
2022/12/12 10:29:18;;;;;;;21.58;13.30;;;;;;;0.05;80.58;101075.22;5283359;28;20020;-71
2022/12/12 10:31:58;;;;;;;23.30;12.77;;;;;;;0.11;80.62;101074.38;5289824;28;20024;-72
2022/12/12 10:34:39;;;;;;;22.42;14.00;;;;;;;0.19;80.04;101068.69;5298996;28;20028;-71
2022/12/12 10:37:35;;;;;;;22.73;14.50;;;;;;;0.11;80.24;101066.19;5303808;28;20035;-72
2022/12/12 10:40:09;;;;;;;22.33;14.45;;;;;;;0.23;80.72;101061.75;5301492;28;20052;-72
2022/12/12 10:43:09;;;;;;;24.10;14.05;;;;;;;0.34;82.21;101060.22;5297728;28;20032;-71
2022/12/12 10:46:08;;;;;;;23.50;14.00;;;;;;;0.55;81.66;101059.06;5290514;28;20105;-73
2022/12/12 10:48:40;;;;;;;19.08;12.07;;;;;;;0.73;82.82;101056.44;5287228;28;20029;-71
2022/12/12 10:51:16;;;;;;;19.30;13.18;;;;;;;0.76;81.31;101058.72;5282245;28;20020;-72
2022/12/12 10:53:48;;;;;;;;;;;;;;;1.04;83.82;101058.31;5303472;28;20085;-73
2022/12/12 10:56:23;;;;;;;21.17;13.57;;;;;;;0.89;78.83;101059.69;5301398;28;19924;-71
2022/12/12 10:59:00;;;;;;;19.48;12.68;;;;;;;0.91;80.20;101063.88;5294632;28;20028;-72
2022/12/12 11:01:36;;;;;;;24.48;14.23;;;;;;;0.88;79.09;101058.88;5284005;28;20024;-73
2022/12/12 11:04:07;;;;;;;21.67;13.45;;;;;;;0.83;78.37;101058.69;5303704;28;20020;-73
2022/12/12 11:06:45;;;;;;;20.02;13.55;;;;;;;0.78;77.64;101059.34;5303774;28;20074;-73
2022/12/12 11:09:21;;;;;;;24.02;13.38;;;;;;;0.72;77.74;101049.31;5290877;28;20100;-70
2022/12/12 11:12:09;;;;;;;21.10;13.57;;;;;;;0.76;77.92;101052.44;5287563;28;20103;-70
2022/12/12 11:14:47;;;;;;;19.48;12.38;;;;;;;0.77;78.19;101051.38;5304099;28;20032;-70
2022/12/12 11:17:25;;;;;;;20.92;13.52;;;;;;;0.79;78.52;101050.13;5291907;28;20057;-70
2022/12/12 11:20:00;;;;;;;20.73;13.20;;;;;;;0.64;77.93;101038.66;5303566;28;20020;-70
2022/12/12 11:22:32;;;;;;;22.17;14.35;;;;;;;0.80;78.23;101042.75;5303024;28;20027;-70
2022/12/12 11:25:07;;;;;;;17.55;11.50;;;;;;;0.89;77.54;101046.03;5292638;28;20028;-70
2022/12/12 11:27:40;;;;;;;24.02;13.25;;;;;;;0.96;77.48;101044.94;5299365;28;20027;-70
2022/12/12 11:30:42;;;;;;;27.13;13.95;;;;;;;1.19;80.88;101049.81;5303122;28;20028;-68
2022/12/12 11:33:20;;;;;;;34.97;16.30;;;;;;;1.90;91.40;101044.94;5279904;28;20109;-68
2022/12/12 11:35:55;;;;;;;28.65;13.02;;;;;;;1.54;80.98;101043.84;5282978;28;20021;-68
2022/12/12 11:38:36;;;;;;;20.65;14.20;;;;;;;1.66;79.65;101039.31;5282097;28;20029;-69
2022/12/12 11:41:10;;;;;;;20.35;13.07;;;;;;;1.72;81.58;101043.84;5282672;28;20024;-69
2022/12/12 11:43:50;;;;;;;23.65;13.55;;;;;;;1.88;76.72;101038.84;5301876;28;20375;-68
2022/12/12 11:46:24;;;;;;;20.13;12.60;;;;;;;1.78;76.32;101033.91;5302859;28;20361;-68
2022/12/12 11:48:59;;;;;;;20.00;11.73;;;;;;;1.90;80.62;101034.00;5283742;28;20442;-68
2022/12/12 11:51:39;;;;;;;16.98;11.23;;;;;;;2.36;82.65;101032.59;5296599;28;20024;-68
2022/12/12 11:54:23;;;;;;;18.98;13.48;;;;;;;1.98;75.35;101024.66;5295588;28;20031;-70
2022/12/12 11:57:05;;;;;;;19.58;12.10;;;;;;;1.96;74.20;101027.59;5302911;28;20028;-70
2022/12/12 12:00:14;;;;;;;20.30;12.10;;;;;;;1.89;74.75;101019.50;5306942;28;20032;-69
2022/12/12 12:02:54;;;;;;;25.52;16.95;;;;;;;1.86;73.53;101021.81;5303498;28;20036;-71
2022/12/12 12:05:51;;;;;;;16.77;11.07;;;;;;;1.93;73.29;101019.84;5306239;28;20398;-73
2022/12/12 12:08:39;;;;;;;18.75;13.32;;;;;;;1.96;72.53;101030.34;5292175;28;20480;-73
2022/12/12 12:11:18;;;;;;;19.25;11.70;;;;;;;1.88;71.21;101019.69;5285487;28;20083;-69
2022/12/12 12:13:52;;;;;;;16.98;11.05;;;;;;;1.84;72.31;101018.47;5285915;28;20028;-68
2022/12/12 12:17:04;;;;;;;14.93;10.90;;;;;;;1.93;71.91;101022.59;5306661;28;20125;-69
2022/12/12 12:19:38;;;;;;;18.10;12.68;;;;;;;2.00;72.11;101017.88;5288203;28;20025;-69
2022/12/12 12:22:43;;;;;;;15.63;10.77;;;;;;;2.00;71.77;101017.88;5285474;28;20059;-71
2022/12/12 12:25:39;;;;;;;17.88;12.88;;;;;;;2.10;71.87;101020.91;5285314;28;20033;-72
2022/12/12 12:28:29;;;;;;;16.77;10.25;;;;;;;2.10;70.89;101017.34;5285261;28;20093;-73
2022/12/12 12:31:06;;;;;;;14.48;10.75;;;;;;;2.15;72.05;101015.59;5285522;28;20051;-72
2022/12/12 12:33:56;;;;;;;14.02;10.88;;;;;;;2.17;70.57;101013.47;5284224;28;20437;-69
2022/12/12 12:36:56;;;;;;;12.68;9.85;;;;;;;2.15;70.27;101010.13;5315631;28;20028;-70
2022/12/12 12:39:58;;;;;;;15.55;10.13;;;;;;;2.26;70.61;101002.19;5310066;28;20036;-69
2022/12/12 12:42:54;;;;;;;15.02;10.63;;;;;;;2.25;69.77;101005.97;5294854;28;20073;-70
2022/12/12 12:45:34;;;;;;;17.23;10.30;;;;;;;2.22;69.62;101004.53;5306127;28;20040;-70
2022/12/12 12:48:29;;;;;;;15.07;10.13;;;;;;;2.25;70.64;101004.09;5284240;28;20116;-70
2022/12/12 12:51:12;;;;;;;39.40;27.48;;;;;;;2.21;69.62;101002.06;5284792;28;20479;-70
2022/12/12 12:54:01;;;;;;;17.10;11.73;;;;;;;2.16;68.90;101009.03;5283845;28;20068;-70
2022/12/12 12:56:37;;;;;;;18.08;10.40;;;;;;;1.98;68.53;100998.13;5283839;28;20025;-70
2022/12/12 12:59:14;;;;;;;21.27;15.63;;;;;;;2.04;69.51;100999.94;5296962;28;20028;-71
2022/12/12 13:01:50;;;;;;;16.10;9.65;;;;;;;2.18;68.14;100998.72;5285148;28;20494;-70
2022/12/12 13:04:28;;;;;;;14.38;9.57;;;;;;;2.15;69.08;101001.09;5305581;28;20122;-71
2022/12/12 13:07:04;;;;;;;14.55;9.35;;;;;;;2.15;69.33;100998.34;5306159;28;20039;-70
2022/12/12 13:10:15;;;;;;;13.43;9.00;;;;;;;2.34;68.25;100996.41;5305086;28;20024;-69
2022/12/12 13:12:54;;;;;;;13.57;9.45;;;;;;;2.40;67.40;100995.47;5306008;28;20448;-69
2022/12/12 13:15:31;;;;;;;13.60;9.63;;;;;;;2.36;66.84;100995.09;5298100;28;20027;-70
2022/12/12 13:18:08;;;;;;;14.40;9.52;;;;;;;2.58;67.24;100997.31;5285537;28;20116;-70
2022/12/12 13:20:44;;;;;;;14.45;8.77;;;;;;;2.58;66.20;100992.69;5284794;28;20488;-71
2022/12/12 13:23:23;;;;;;;12.00;7.78;;;;;;;2.70;66.25;100994.63;5283982;28;20051;-71
2022/12/12 13:26:18;;;;;;;11.50;8.13;;;;;;;2.80;66.12;100995.72;5284990;28;20032;-71
2022/12/12 13:28:58;;;;;;;12.48;9.00;;;;;;;2.73;65.79;100994.16;5283650;28;20098;-69
2022/12/12 13:32:09;;;;;;;12.57;9.32;;;;;;;2.91;65.23;100990.50;5284544;28;20025;-68
2022/12/12 13:34:46;;;;;;;13.10;8.55;;;;;;;2.95;64.69;100991.72;5283762;28;20024;-71
2022/12/12 13:37:20;;;;;;;11.90;8.38;;;;;;;3.00;64.76;100978.97;5283397;28;20056;-70
2022/12/12 13:39:58;;;;;;;13.25;8.82;;;;;;;3.04;65.25;100984.78;5295109;28;20123;-70
2022/12/12 13:42:55;;;;;;;13.73;8.32;;;;;;;3.18;65.66;100985.44;5304840;28;20036;-70
2022/12/12 13:45:36;;;;;;;13.45;8.60;;;;;;;3.14;63.83;100985.03;5275511;28;20039;-71
2022/12/12 13:48:26;;;;;;;9.98;7.70;;;;;;;3.29;63.20;100986.50;5305218;28;20065;-70
2022/12/12 13:51:32;;;;;;;11.32;7.75;;;;;;;3.32;63.43;100989.59;5284287;28;20061;-69
2022/12/12 13:54:06;;;;;;;13.38;8.93;;;;;;;3.26;62.49;100985.06;5284912;28;20028;-69
2022/12/12 13:56:55;;;;;;;12.43;8.25;;;;;;;3.36;63.17;100979.00;5283031;28;20071;-69
2022/12/12 13:59:29;;;;;;;12.38;9.13;;;;;;;3.09;63.61;100975.88;5283797;28;20494;-69
2022/12/12 14:02:18;;;;;;;57.05;39.05;;;;;;;3.23;64.30;100978.16;5295732;28;20028;-70
2022/12/12 14:05:11;;;;;;;17.70;9.07;;;;;;;3.17;64.32;100978.25;5303627;28;20086;-69
2022/12/12 14:07:48;;;;;;;15.85;7.63;;;;;;;3.04;62.59;100980.19;5286820;28;20022;-68
2022/12/12 14:10:30;;;;;;;10.23;6.72;;;;;;;2.98;62.38;100986.59;5283279;28;20017;-69
2022/12/12 14:13:20;;;;;;;8.75;5.85;;;;;;;2.96;62.12;100985.16;5282471;28;20424;-68
2022/12/12 14:16:00;;;;;;;10.05;6.10;;;;;;;2.81;61.67;100980.09;5283664;28;20028;-68
2022/12/12 14:18:40;;;;;;;16.20;6.95;;;;;;;2.85;63.52;100983.22;5281817;28;20086;-68
2022/12/12 14:21:34;;;;;;;12.70;6.72;;;;;;;2.71;64.10;100983.44;5283363;28;20028;-68
2022/12/12 14:24:33;;;;;;;20.15;11.45;;;;;;;2.73;64.46;100991.41;5296443;28;20012;-68
2022/12/12 14:27:06;;;;;;;11.55;6.93;;;;;;;2.67;64.59;100997.84;5302786;28;20028;-68
2022/12/12 14:29:43;;;;;;;13.98;6.93;;;;;;;2.64;64.79;101001.03;5300756;28;20044;-69
2022/12/12 14:32:50;;;;;;;10.65;7.10;;;;;;;2.58;64.50;101003.66;5282229;28;20029;-71
2022/12/12 14:35:40;;;;;;;9.43;6.72;;;;;;;2.61;64.45;100997.69;5232159;28;20051;-69
2022/12/12 14:38:21;;;;;;;11.68;7.28;;;;;;;2.49;65.70;101013.25;5299015;28;20457;-70
2022/12/12 14:40:57;;;;;;;14.43;7.40;;;;;;;2.52;65.96;101011.94;5292216;28;20036;-69
2022/12/12 14:43:34;;;;;;;10.75;7.53;;;;;;;2.54;64.94;101013.38;5282546;28;20104;-69
2022/12/12 14:46:14;;;;;;;20.38;18.30;;;;;;;2.44;66.18;101007.63;5291856;28;20054;-69
2022/12/12 14:48:45;;;;;;;15.65;10.10;;;;;;;2.44;66.33;101010.38;5303736;28;20028;-70
2022/12/12 14:51:30;;;;;;;10.43;7.75;;;;;;;2.44;67.48;101015.84;5303780;28;20035;-69
2022/12/12 14:54:02;;;;;;;14.65;11.40;;;;;;;2.34;66.99;101007.34;5303095;28;20115;-69
2022/12/12 14:56:39;;;;;;;12.07;7.03;;;;;;;2.29;68.60;101012.69;5288385;28;20115;-69
2022/12/12 14:59:17;;;;;;;14.73;7.45;;;;;;;2.29;69.10;101010.78;5303318;28;20024;-69
2022/12/12 15:02:15;;;;;;;15.68;8.13;;;;;;;2.26;69.20;101013.16;5302610;28;20115;-69
2022/12/12 15:04:50;;;;;;;13.45;7.95;;;;;;;2.24;69.27;101012.53;5303548;28;20487;-70
2022/12/12 15:07:56;;;;;;;11.90;7.03;;;;;;;2.26;68.96;101010.41;5303250;28;20035;-70
2022/12/12 15:10:29;;;;;;;12.93;8.15;;;;;;;2.20;70.12;101006.69;5295905;28;20036;-71
2022/12/12 15:13:01;;;;;;;21.92;10.40;;;;;;;2.18;69.95;101017.03;5297726;28;20044;-72
2022/12/12 15:15:33;;;;;;;17.20;9.55;;;;;;;2.17;69.99;101010.72;5301806;28;20439;-72
2022/12/12 15:18:05;;;;;;;24.35;10.82;;;;;;;2.15;70.33;101014.75;5302061;28;20064;-72
2022/12/12 15:20:36;;;;;;;25.70;10.32;;;;;;;2.12;71.21;101016.06;5283370;28;20118;-69
2022/12/12 15:23:18;;;;;;;36.95;13.13;;;;;;;2.12;71.83;101017.94;5287677;28;20192;-70
2022/12/12 15:25:54;;;;;;;28.42;12.88;;;;;;;2.11;71.74;101017.09;5282514;28;20095;-70
2022/12/12 15:28:27;;;;;;;18.38;10.18;;;;;;;2.05;71.33;101023.50;5290976;28;20047;-70
2022/12/12 15:30:59;;;;;;;21.75;11.65;;;;;;;2.01;72.27;101021.44;5289231;28;20013;-70
2022/12/12 15:33:37;;;;;;;14.90;10.57;;;;;;;1.94;72.08;101030.59;5307242;28;20081;-71
2022/12/12 15:36:27;;;;;;;32.92;12.88;;;;;;;1.94;72.50;101024.25;5306862;28;20060;-70
2022/12/12 15:39:16;;;;;;;39.05;15.82;;;;;;;1.88;73.31;101025.19;5300262;28;20533;-70
2022/12/12 15:41:49;;;;;;;31.20;13.05;;;;;;;1.77;73.18;101026.78;5281830;28;20085;-71
2022/12/12 15:44:20;;;;;;;26.83;12.95;;;;;;;1.74;73.58;101025.31;5285389;28;20452;-69
2022/12/12 15:46:52;;;;;;;27.05;12.40;;;;;;;1.72;73.25;101038.38;5285519;28;20132;-69
2022/12/12 15:49:36;;;;;;;23.92;11.02;;;;;;;1.70;74.81;101034.19;5290667;28;20033;-69
2022/12/12 15:52:28;;;;;;;17.02;10.07;;;;;;;1.65;74.48;101029.41;5285750;28;20039;-70
2022/12/12 15:55:02;;;;;;;21.42;11.63;;;;;;;1.55;74.14;101040.03;5285230;28;20032;-71
2022/12/12 15:57:46;;;;;;;22.08;13.70;;;;;;;1.48;74.55;101037.38;5284754;28;20036;-70
2022/12/12 16:00:33;;;;;;;18.98;11.35;;;;;;;1.35;75.32;101044.84;5293563;28;20459;-71
2022/12/12 16:03:11;;;;;;;17.52;10.60;;;;;;;1.38;76.08;101049.84;5328220;28;20024;-71
2022/12/12 16:05:42;;;;;;;14.27;10.25;;;;;;;1.30;75.31;101057.28;5310145;28;20051;-70
2022/12/12 16:08:36;;;;;;;15.75;10.13;;;;;;;1.37;76.67;101048.19;5306866;28;20397;-72
2022/12/12 16:11:32;;;;;;;14.25;9.55;;;;;;;1.29;75.96;101052.03;5306624;28;20527;-74
2022/12/12 16:14:21;;;;;;;18.33;12.27;;;;;;;1.28;76.33;101051.22;5285739;28;20025;-74
2022/12/12 16:17:22;;;;;;;13.00;10.48;;;;;;;1.67;81.88;101062.84;5286933;28;20124;-74
2022/12/12 16:20:00;;;;;;;16.45;10.65;;;;;;;2.08;85.51;101050.41;5291051;28;20032;-81
2022/12/12 16:22:47;;;;;;;17.73;12.57;;;;;;;1.63;78.79;101044.38;5295190;28;20025;-86
2022/12/12 16:25:27;;;;;;;17.15;11.35;;;;;;;1.53;77.12;101036.66;5314491;28;20024;-83
2022/12/12 16:28:04;;;;;;;17.85;12.02;;;;;;;1.49;76.50;101038.19;5306936;28;20057;-73
2022/12/12 16:30:38;;;;;;;14.82;11.35;;;;;;;1.17;77.03;101040.16;5305992;28;20393;-72
2022/12/12 16:33:26;;;;;;;16.27;12.07;;;;;;;1.21;77.77;101042.22;5302139;28;20054;-72
2022/12/12 16:36:00;;;;;;;19.65;14.48;;;;;;;1.23;78.44;101042.84;5296415;28;20472;-72
